sensor_id;sensor_type;location;lat;lon;timestamp;P1;durP1;ratioP1;P2;durP2;ratioP2
21492;SDS011;10908;50.690;4.400;2022-09-24T00:00:40;27.75;;;18.27;;
21492;SDS011;10908;50.690;4.400;2022-09-24T00:03:05;29.35;;;18.17;;
21492;SDS011;10908;50.690;4.400;2022-09-24T00:05:35;24.45;;;17.48;;
21492;SDS011;10908;50.690;4.400;2022-09-24T00:08:07;26.95;;;14.93;;
21492;SDS011;10908;50.690;4.400;2022-09-24T00:10:40;22.50;;;12.45;;
21492;SDS011;10908;50.690;4.400;2022-09-24T00:13:07;21.30;;;12.65;;
21492;SDS011;10908;50.690;4.400;2022-09-24T00:15:40;21.33;;;13.00;;
21492;SDS011;10908;50.690;4.400;2022-09-24T00:18:08;22.42;;;12.30;;
21492;SDS011;10908;50.690;4.400;2022-09-24T00:20:35;22.23;;;12.98;;
21492;SDS011;10908;50.690;4.400;2022-09-24T00:23:02;24.48;;;13.85;;
21492;SDS011;10908;50.690;4.400;2022-09-24T00:25:29;23.73;;;13.30;;
21492;SDS011;10908;50.690;4.400;2022-09-24T00:28:13;23.60;;;13.65;;
21492;SDS011;10908;50.690;4.400;2022-09-24T00:30:40;24.55;;;13.48;;
21492;SDS011;10908;50.690;4.400;2022-09-24T00:33:07;23.88;;;13.55;;
21492;SDS011;10908;50.690;4.400;2022-09-24T00:35:34;23.98;;;13.25;;
21492;SDS011;10908;50.690;4.400;2022-09-24T00:38:00;22.65;;;13.55;;
21492;SDS011;10908;50.690;4.400;2022-09-24T00:40:33;25.48;;;14.50;;
21492;SDS011;10908;50.690;4.400;2022-09-24T00:42:59;27.67;;;14.35;;
21492;SDS011;10908;50.690;4.400;2022-09-24T00:45:26;25.02;;;14.13;;
21492;SDS011;10908;50.690;4.400;2022-09-24T00:47:55;24.55;;;13.82;;
21492;SDS011;10908;50.690;4.400;2022-09-24T00:50:24;23.48;;;14.32;;
21492;SDS011;10908;50.690;4.400;2022-09-24T00:55:57;22.70;;;13.38;;
21492;SDS011;10908;50.690;4.400;2022-09-24T00:58:25;23.70;;;13.15;;
21492;SDS011;10908;50.690;4.400;2022-09-24T01:00:53;24.73;;;13.98;;
21492;SDS011;10908;50.690;4.400;2022-09-24T01:03:24;26.40;;;13.35;;
21492;SDS011;10908;50.690;4.400;2022-09-24T01:05:52;23.88;;;14.27;;
21492;SDS011;10908;50.690;4.400;2022-09-24T01:08:19;23.40;;;14.32;;
21492;SDS011;10908;50.690;4.400;2022-09-24T01:31:16;23.13;;;13.23;;
21492;SDS011;10908;50.690;4.400;2022-09-24T01:33:54;21.80;;;13.23;;
21492;SDS011;10908;50.690;4.400;2022-09-24T01:36:23;22.00;;;13.30;;
21492;SDS011;10908;50.690;4.400;2022-09-24T01:38:51;22.33;;;12.25;;
21492;SDS011;10908;50.690;4.400;2022-09-24T01:41:18;23.27;;;13.10;;
21492;SDS011;10908;50.690;4.400;2022-09-24T01:43:45;23.05;;;13.73;;
21492;SDS011;10908;50.690;4.400;2022-09-24T01:46:12;21.58;;;12.50;;
21492;SDS011;10908;50.690;4.400;2022-09-24T01:48:40;21.77;;;12.80;;
21492;SDS011;10908;50.690;4.400;2022-09-24T01:51:26;22.45;;;12.98;;
21492;SDS011;10908;50.690;4.400;2022-09-24T01:54:01;20.08;;;12.05;;
21492;SDS011;10908;50.690;4.400;2022-09-24T13:57:10;17.90;;;11.43;;
21492;SDS011;10908;50.690;4.400;2022-09-24T13:59:38;19.05;;;12.18;;
21492;SDS011;10908;50.690;4.400;2022-09-24T14:02:18;22.25;;;11.98;;
21492;SDS011;10908;50.690;4.400;2022-09-24T14:04:54;18.65;;;11.35;;
21492;SDS011;10908;50.690;4.400;2022-09-24T14:07:22;20.00;;;12.25;;
21492;SDS011;10908;50.690;4.400;2022-09-24T14:09:49;18.23;;;12.05;;
21492;SDS011;10908;50.690;4.400;2022-09-24T14:12:25;19.58;;;12.90;;
21492;SDS011;10908;50.690;4.400;2022-09-24T14:14:52;21.27;;;12.52;;
21492;SDS011;10908;50.690;4.400;2022-09-24T14:17:22;19.92;;;13.52;;
21492;SDS011;10908;50.690;4.400;2022-09-24T14:19:55;20.08;;;13.18;;
21492;SDS011;10908;50.690;4.400;2022-09-24T14:24:54;21.88;;;14.32;;
21492;SDS011;10908;50.690;4.400;2022-09-24T14:27:20;21.70;;;14.25;;
21492;SDS011;10908;50.690;4.400;2022-09-24T14:29:51;23.45;;;13.93;;
21492;SDS011;10908;50.690;4.400;2022-09-24T14:32:27;19.60;;;13.15;;
21492;SDS011;10908;50.690;4.400;2022-09-24T14:37:36;19.38;;;11.85;;
21492;SDS011;10908;50.690;4.400;2022-09-24T14:42:37;17.48;;;12.18;;
21492;SDS011;10908;50.690;4.400;2022-09-24T14:45:19;19.13;;;12.38;;
21492;SDS011;10908;50.690;4.400;2022-09-24T14:47:46;19.73;;;13.60;;
21492;SDS011;10908;50.690;4.400;2022-09-24T14:50:24;19.98;;;13.48;;
21492;SDS011;10908;50.690;4.400;2022-09-24T14:53:01;21.02;;;14.35;;
21492;SDS011;10908;50.690;4.400;2022-09-24T14:55:46;24.73;;;15.45;;
21492;SDS011;10908;50.690;4.400;2022-09-24T15:08:50;20.70;;;14.00;;
21492;SDS011;10908;50.690;4.400;2022-09-24T15:11:23;22.90;;;16.33;;
21492;SDS011;10908;50.690;4.400;2022-09-24T15:14:35;25.10;;;16.70;;
21492;SDS011;10908;50.690;4.400;2022-09-24T15:16:43;24.75;;;17.10;;
21492;SDS011;10908;50.690;4.400;2022-09-24T15:19:21;28.05;;;19.17;;
21492;SDS011;10908;50.690;4.400;2022-09-24T15:21:56;25.25;;;18.35;;
21492;SDS011;10908;50.690;4.400;2022-09-24T15:24:23;27.15;;;18.15;;
21492;SDS011;10908;50.690;4.400;2022-09-24T15:26:59;26.85;;;17.90;;
21492;SDS011;10908;50.690;4.400;2022-09-24T15:29:25;28.58;;;19.77;;
21492;SDS011;10908;50.690;4.400;2022-09-24T15:31:52;27.60;;;20.15;;
21492;SDS011;10908;50.690;4.400;2022-09-24T15:34:19;26.75;;;18.92;;
21492;SDS011;10908;50.690;4.400;2022-09-24T15:36:50;29.38;;;18.73;;
21492;SDS011;10908;50.690;4.400;2022-09-24T15:39:23;25.27;;;18.35;;
21492;SDS011;10908;50.690;4.400;2022-09-24T15:41:50;25.42;;;17.90;;
21492;SDS011;10908;50.690;4.400;2022-09-24T15:46:08;27.50;;;18.52;;
21492;SDS011;10908;50.690;4.400;2022-09-24T15:48:33;26.23;;;19.08;;
21492;SDS011;10908;50.690;4.400;2022-09-24T15:51:00;24.88;;;18.35;;
21492;SDS011;10908;50.690;4.400;2022-09-24T15:53:26;27.50;;;18.02;;
21492;SDS011;10908;50.690;4.400;2022-09-24T15:55:55;23.75;;;16.42;;
21492;SDS011;10908;50.690;4.400;2022-09-24T15:58:23;25.33;;;17.20;;
21492;SDS011;10908;50.690;4.400;2022-09-24T16:00:49;24.25;;;16.92;;
21492;SDS011;10908;50.690;4.400;2022-09-24T16:03:17;23.30;;;17.75;;
21492;SDS011;10908;50.690;4.400;2022-09-24T16:05:50;26.80;;;19.02;;
21492;SDS011;10908;50.690;4.400;2022-09-24T16:08:16;23.77;;;17.73;;
21492;SDS011;10908;50.690;4.400;2022-09-24T16:10:42;24.58;;;17.27;;
21492;SDS011;10908;50.690;4.400;2022-09-24T16:13:08;26.23;;;17.33;;
21492;SDS011;10908;50.690;4.400;2022-09-24T16:15:35;23.95;;;17.20;;
21492;SDS011;10908;50.690;4.400;2022-09-24T16:18:01;25.27;;;17.02;;
21492;SDS011;10908;50.690;4.400;2022-09-24T16:20:27;24.42;;;17.25;;
21492;SDS011;10908;50.690;4.400;2022-09-24T16:22:53;22.38;;;15.40;;
21492;SDS011;10908;50.690;4.400;2022-09-24T16:25:18;22.23;;;15.68;;
21492;SDS011;10908;50.690;4.400;2022-09-24T16:27:44;22.50;;;15.75;;
21492;SDS011;10908;50.690;4.400;2022-09-24T16:30:10;24.77;;;16.67;;
21492;SDS011;10908;50.690;4.400;2022-09-24T16:32:35;22.38;;;15.70;;
21492;SDS011;10908;50.690;4.400;2022-09-24T16:35:01;25.08;;;15.38;;
21492;SDS011;10908;50.690;4.400;2022-09-24T16:37:27;21.05;;;13.88;;
21492;SDS011;10908;50.690;4.400;2022-09-24T16:39:52;21.23;;;14.02;;
21492;SDS011;10908;50.690;4.400;2022-09-24T16:42:19;20.50;;;13.68;;
21492;SDS011;10908;50.690;4.400;2022-09-24T16:44:44;22.10;;;14.13;;
21492;SDS011;10908;50.690;4.400;2022-09-24T16:47:10;21.90;;;14.40;;
21492;SDS011;10908;50.690;4.400;2022-09-24T16:49:40;22.08;;;14.70;;
21492;SDS011;10908;50.690;4.400;2022-09-24T16:52:06;24.15;;;15.25;;
21492;SDS011;10908;50.690;4.400;2022-09-24T16:54:31;24.30;;;15.50;;
21492;SDS011;10908;50.690;4.400;2022-09-24T16:56:57;25.45;;;16.85;;
21492;SDS011;10908;50.690;4.400;2022-09-24T16:59:23;25.23;;;16.70;;
21492;SDS011;10908;50.690;4.400;2022-09-24T17:01:48;24.00;;;13.80;;
21492;SDS011;10908;50.690;4.400;2022-09-24T17:04:14;23.95;;;14.27;;
21492;SDS011;10908;50.690;4.400;2022-09-24T17:06:40;24.27;;;15.00;;
21492;SDS011;10908;50.690;4.400;2022-09-24T17:09:08;22.70;;;14.43;;
21492;SDS011;10908;50.690;4.400;2022-09-24T17:11:53;25.13;;;14.90;;
21492;SDS011;10908;50.690;4.400;2022-09-24T17:14:20;23.00;;;15.02;;
21492;SDS011;10908;50.690;4.400;2022-09-24T17:16:47;23.63;;;15.50;;
21492;SDS011;10908;50.690;4.400;2022-09-24T17:19:13;26.70;;;15.07;;
21492;SDS011;10908;50.690;4.400;2022-09-24T17:21:39;25.73;;;14.57;;
21492;SDS011;10908;50.690;4.400;2022-09-24T17:24:09;24.92;;;14.32;;
21492;SDS011;10908;50.690;4.400;2022-09-24T17:26:36;23.83;;;14.20;;
21492;SDS011;10908;50.690;4.400;2022-09-24T17:29:02;25.90;;;15.40;;
21492;SDS011;10908;50.690;4.400;2022-09-24T17:31:28;25.23;;;15.52;;
21492;SDS011;10908;50.690;4.400;2022-09-24T17:34:01;24.42;;;15.57;;
21492;SDS011;10908;50.690;4.400;2022-09-24T17:36:29;23.40;;;15.45;;
21492;SDS011;10908;50.690;4.400;2022-09-24T17:38:57;24.95;;;15.15;;
21492;SDS011;10908;50.690;4.400;2022-09-24T17:41:24;26.52;;;15.82;;
21492;SDS011;10908;50.690;4.400;2022-09-24T17:43:50;23.90;;;15.35;;
21492;SDS011;10908;50.690;4.400;2022-09-24T17:46:17;24.05;;;15.35;;
21492;SDS011;10908;50.690;4.400;2022-09-24T17:48:46;19.48;;;9.23;;
21492;SDS011;10908;50.690;4.400;2022-09-24T17:51:16;18.40;;;9.32;;
21492;SDS011;10908;50.690;4.400;2022-09-24T17:53:44;15.65;;;8.40;;
21492;SDS011;10908;50.690;4.400;2022-09-24T17:56:11;17.88;;;8.73;;
21492;SDS011;10908;50.690;4.400;2022-09-24T17:58:39;18.23;;;8.30;;
21492;SDS011;10908;50.690;4.400;2022-09-24T18:01:08;16.70;;;7.35;;
21492;SDS011;10908;50.690;4.400;2022-09-24T18:03:35;20.17;;;8.00;;
21492;SDS011;10908;50.690;4.400;2022-09-24T18:06:02;15.90;;;7.50;;
21492;SDS011;10908;50.690;4.400;2022-09-24T18:08:29;16.38;;;7.53;;
21492;SDS011;10908;50.690;4.400;2022-09-24T18:10:59;15.32;;;6.63;;
21492;SDS011;10908;50.690;4.400;2022-09-24T18:13:29;16.13;;;7.53;;
21492;SDS011;10908;50.690;4.400;2022-09-24T18:16:04;18.20;;;8.43;;
21492;SDS011;10908;50.690;4.400;2022-09-24T18:18:34;15.73;;;7.13;;
21492;SDS011;10908;50.690;4.400;2022-09-24T18:21:01;15.93;;;7.47;;
21492;SDS011;10908;50.690;4.400;2022-09-24T18:23:28;20.92;;;12.27;;
21492;SDS011;10908;50.690;4.400;2022-09-24T18:25:55;21.95;;;11.73;;
21492;SDS011;10908;50.690;4.400;2022-09-24T18:28:31;24.75;;;12.70;;
21492;SDS011;10908;50.690;4.400;2022-09-24T18:31:01;21.95;;;11.32;;
21492;SDS011;10908;50.690;4.400;2022-09-24T18:33:29;23.83;;;13.70;;
21492;SDS011;10908;50.690;4.400;2022-09-24T18:35:55;20.80;;;11.90;;
21492;SDS011;10908;50.690;4.400;2022-09-24T18:38:21;22.42;;;12.00;;
21492;SDS011;10908;50.690;4.400;2022-09-24T18:40:47;21.33;;;11.48;;
21492;SDS011;10908;50.690;4.400;2022-09-24T18:43:13;23.25;;;12.57;;
21492;SDS011;10908;50.690;4.400;2022-09-24T18:45:38;21.77;;;11.30;;
21492;SDS011;10908;50.690;4.400;2022-09-24T18:48:04;22.15;;;12.23;;
21492;SDS011;10908;50.690;4.400;2022-09-24T18:50:30;26.52;;;12.43;;
21492;SDS011;10908;50.690;4.400;2022-09-24T18:52:55;23.23;;;12.00;;
21492;SDS011;10908;50.690;4.400;2022-09-24T18:55:21;26.92;;;12.80;;
21492;SDS011;10908;50.690;4.400;2022-09-24T18:57:47;25.38;;;13.30;;
21492;SDS011;10908;50.690;4.400;2022-09-24T19:00:12;26.73;;;12.73;;
21492;SDS011;10908;50.690;4.400;2022-09-24T19:02:58;24.80;;;13.15;;
21492;SDS011;10908;50.690;4.400;2022-09-24T19:05:23;23.95;;;13.32;;
21492;SDS011;10908;50.690;4.400;2022-09-24T19:07:49;27.52;;;12.30;;
21492;SDS011;10908;50.690;4.400;2022-09-24T19:10:15;25.77;;;13.63;;
21492;SDS011;10908;50.690;4.400;2022-09-24T19:12:40;25.58;;;13.75;;
21492;SDS011;10908;50.690;4.400;2022-09-24T19:15:07;26.85;;;13.18;;
21492;SDS011;10908;50.690;4.400;2022-09-24T19:17:32;28.83;;;13.65;;
21492;SDS011;10908;50.690;4.400;2022-09-24T19:19:58;25.15;;;13.65;;
21492;SDS011;10908;50.690;4.400;2022-09-24T19:22:24;26.20;;;17.20;;
21492;SDS011;10908;50.690;4.400;2022-09-24T19:24:49;31.05;;;17.52;;
21492;SDS011;10908;50.690;4.400;2022-09-24T19:27:15;31.08;;;17.80;;
21492;SDS011;10908;50.690;4.400;2022-09-24T19:29:41;30.25;;;17.50;;
21492;SDS011;10908;50.690;4.400;2022-09-24T19:32:07;30.75;;;18.35;;
21492;SDS011;10908;50.690;4.400;2022-09-24T19:34:35;33.65;;;18.95;;
21492;SDS011;10908;50.690;4.400;2022-09-24T19:37:01;27.52;;;17.45;;
21492;SDS011;10908;50.690;4.400;2022-09-24T19:39:27;34.72;;;18.50;;
21492;SDS011;10908;50.690;4.400;2022-09-24T19:41:52;30.83;;;18.05;;
21492;SDS011;10908;50.690;4.400;2022-09-24T19:44:18;31.75;;;17.77;;
21492;SDS011;10908;50.690;4.400;2022-09-24T19:46:44;28.38;;;17.77;;
21492;SDS011;10908;50.690;4.400;2022-09-24T19:49:09;35.70;;;17.83;;
21492;SDS011;10908;50.690;4.400;2022-09-24T19:51:35;30.77;;;18.10;;
21492;SDS011;10908;50.690;4.400;2022-09-24T19:54:01;31.45;;;18.15;;
